Time;durP1;ratioP1;P1;durP2;ratioP2;P2;SDS_P1;SDS_P2;PMS_P1;PMS_P2;Temp;Humidity;BMP_temperature;BMP_pressure;BME280_temperature;BME280_humidity;BME280_pressure;Samples;Min_cycle;Max_cycle;Signal;HPM_P1;HPM_P2
2023/06/12 00:01:37;;;;;;;9.98;6.82;;;19.50;99.90;;;;;;4937272;28;20054;-75
2023/06/12 00:04:04;;;;;;;11.93;5.97;;;19.70;99.90;;;;;;4969390;28;20446;-77
2023/06/12 00:06:35;;;;;;;10.15;5.90;;;19.80;99.90;;;;;;4979431;28;20043;-76
2023/06/12 00:09:17;;;;;;;8.60;5.55;;;19.70;99.90;;;;;;4952609;28;20046;-75
2023/06/12 00:11:45;;;;;;;8.15;5.25;;;19.60;99.90;;;;;;4978725;28;20034;-76
2023/06/12 00:14:12;;;;;;;8.38;5.65;;;19.50;99.90;;;;;;4979804;28;20046;-76
2023/06/12 00:16:45;;;;;;;11.70;6.28;;;19.40;99.90;;;;;;4979448;28;20094;-76
2023/06/12 00:22:40;;;;;;;8.73;5.65;;;19.50;99.90;;;;;;4962224;28;20053;-76
2023/06/12 00:25:08;;;;;;;8.27;5.85;;;19.60;99.90;;;;;;4960130;28;20046;-75
2023/06/12 00:27:37;;;;;;;7.97;5.10;;;19.60;99.90;;;;;;4955806;28;20054;-75
2023/06/12 00:30:06;;;;;;;8.13;5.38;;;19.60;99.90;;;;;;4955883;28;20043;-75
2023/06/12 00:32:34;;;;;;;7.63;5.13;;;19.60;99.90;;;;;;4977999;28;20050;-76
2023/06/12 00:35:01;;;;;;;8.50;4.95;;;19.60;99.90;;;;;;4970752;28;20482;-75
2023/06/12 00:37:31;;;;;;;9.02;5.22;;;19.60;99.90;;;;;;4975591;28;20042;-76
2023/06/12 00:39:59;;;;;;;10.87;6.03;;;19.70;99.90;;;;;;4947488;28;20089;-75
2023/06/12 00:42:38;;;;;;;9.05;5.55;;;19.50;99.90;;;;;;4954387;28;20685;-75
2023/06/12 00:45:06;;;;;;;10.88;5.40;;;19.50;99.90;;;;;;4945619;28;20073;-75
2023/06/12 00:47:34;;;;;;;8.52;5.50;;;19.50;99.90;;;;;;4979071;28;20043;-76
2023/06/12 00:50:02;;;;;;;8.27;6.00;;;19.60;99.90;;;;;;4965441;28;20038;-76
2023/06/12 00:52:34;;;;;;;9.93;5.63;;;19.60;99.90;;;;;;4977627;28;20051;-76
2023/06/12 00:55:14;;;;;;;8.55;5.20;;;19.50;99.90;;;;;;4956413;23;20066;-75
2023/06/12 00:57:44;;;;;;;9.18;6.10;;;19.50;99.90;;;;;;4960886;28;20059;-75
2023/06/12 01:00:14;;;;;;;10.25;6.30;;;19.50;99.90;;;;;;4968484;28;20063;-75
2023/06/12 01:02:45;;;;;;;;;;;19.60;99.90;;;;;;4975984;28;20352;-75
2023/06/12 01:05:17;;;;;;;8.85;6.20;;;19.50;99.90;;;;;;4974666;28;20021;-74
2023/06/12 01:07:54;;;;;;;9.52;6.00;;;19.60;99.90;;;;;;4962814;28;20042;-75
2023/06/12 01:10:30;;;;;;;9.48;6.00;;;19.50;99.90;;;;;;4969749;28;20035;-75
2023/06/12 01:13:03;;;;;;;9.63;5.65;;;19.40;99.90;;;;;;4944098;28;20058;-74
2023/06/12 01:15:36;;;;;;;8.98;5.60;;;19.40;99.90;;;;;;4971066;28;20138;-74
2023/06/12 01:18:06;;;;;;;8.13;5.70;;;19.40;99.90;;;;;;4963601;28;20043;-75
2023/06/12 01:20:40;;;;;;;10.75;5.20;;;19.40;99.90;;;;;;4960996;28;20039;-75
2023/06/12 01:23:18;;;;;;;7.78;5.45;;;19.30;99.90;;;;;;4969556;28;20118;-75
2023/06/12 01:26:33;;;;;;;7.80;5.68;;;19.40;99.90;;;;;;4972150;28;20046;-75
2023/06/12 01:29:25;;;;;;;11.10;6.25;;;19.30;99.90;;;;;;4945105;28;20046;-77
2023/06/12 01:32:07;;;;;;;10.48;5.68;;;19.40;99.90;;;;;;4963634;28;20058;-76
2023/06/12 01:34:38;;;;;;;10.60;5.60;;;19.30;99.90;;;;;;4967642;28;20129;-75
2023/06/12 01:37:31;;;;;;;12.27;5.53;;;19.40;99.90;;;;;;4965253;28;20036;-75
2023/06/12 01:40:08;;;;;;;7.93;5.70;;;19.40;99.90;;;;;;4959061;28;20047;-75
2023/06/12 01:42:41;;;;;;;9.18;5.50;;;19.50;99.90;;;;;;4966728;28;20035;-75
2023/06/12 01:45:19;;;;;;;10.10;5.57;;;19.40;99.90;;;;;;4938263;28;20050;-77
2023/06/12 01:48:07;;;;;;;9.32;5.20;;;19.40;99.90;;;;;;4953036;28;20392;-77
2023/06/12 01:50:51;;;;;;;7.13;5.00;;;19.40;99.90;;;;;;4959711;28;20043;-76
2023/06/12 01:53:19;;;;;;;8.25;5.32;;;19.50;99.90;;;;;;4954861;28;20443;-77
2023/06/12 01:56:00;;;;;;;9.73;5.53;;;19.50;99.90;;;;;;4952417;28;20051;-76
2023/06/12 01:58:28;;;;;;;7.03;5.18;;;19.50;99.90;;;;;;4970842;28;20114;-74
2023/06/12 02:00:55;;;;;;;7.38;5.15;;;19.60;99.90;;;;;;4976605;28;20469;-74
2023/06/12 02:03:23;;;;;;;7.60;5.22;;;19.60;99.90;;;;;;4978403;28;20125;-77
2023/06/12 02:05:50;;;;;;;7.78;4.70;;;19.70;99.90;;;;;;4970861;28;20134;-75
2023/06/12 02:08:17;;;;;;;8.05;5.05;;;19.70;99.90;;;;;;4973783;28;20067;-76
2023/06/12 02:10:45;;;;;;;8.48;5.55;;;19.70;99.90;;;;;;4976463;28;20388;-74
2023/06/12 02:13:12;;;;;;;7.03;5.22;;;19.70;99.90;;;;;;4975603;28;20140;-76
2023/06/12 02:15:39;;;;;;;8.10;5.40;;;19.50;99.90;;;;;;4980162;28;20080;-74
2023/06/12 02:18:07;;;;;;;8.43;6.35;;;19.40;99.90;;;;;;4980113;28;20042;-76
2023/06/12 02:20:35;;;;;;;8.65;5.90;;;19.50;99.90;;;;;;4976243;28;20047;-76
2023/06/12 02:23:03;;;;;;;10.45;5.25;;;19.60;99.90;;;;;;4972357;28;20141;-77
2023/06/12 02:25:30;;;;;;;9.73;5.70;;;19.60;99.90;;;;;;4971464;28;20447;-75
2023/06/12 02:27:59;;;;;;;9.88;5.25;;;19.70;99.90;;;;;;4979369;28;20046;-74
2023/06/12 02:30:26;;;;;;;8.05;5.20;;;19.50;99.90;;;;;;4982207;28;20054;-75
2023/06/12 02:32:56;;;;;;;7.80;5.07;;;19.50;99.90;;;;;;4980886;28;20057;-76
2023/06/12 02:35:24;;;;;;;11.30;5.88;;;19.50;99.90;;;;;;4949461;28;20038;-75
2023/06/12 02:37:51;;;;;;;8.40;5.97;;;19.50;99.90;;;;;;4980504;28;20039;-74
2023/06/12 02:40:22;;;;;;;10.57;5.72;;;19.50;99.90;;;;;;4978917;28;20054;-75
2023/06/12 02:42:49;;;;;;;8.77;5.55;;;19.50;99.90;;;;;;4979849;28;20443;-75
2023/06/12 02:45:17;;;;;;;10.55;5.93;;;19.60;99.90;;;;;;4951650;28;20089;-74
2023/06/12 02:47:49;;;;;;;;;;;19.50;99.90;;;;;;4966417;28;20150;-74
2023/06/12 02:50:17;;;;;;;9.88;5.78;;;19.50;99.90;;;;;;4947216;28;19933;-75
2023/06/12 02:52:48;;;;;;;8.65;5.60;;;19.60;99.90;;;;;;4978474;28;20109;-75
2023/06/12 02:55:44;;;;;;;8.13;5.55;;;19.50;99.90;;;;;;4998892;23;20570;-76
2023/06/12 02:58:15;;;;;;;7.35;5.13;;;19.40;99.90;;;;;;4953190;28;20047;-75
2023/06/12 03:00:45;;;;;;;9.32;5.88;;;19.40;99.90;;;;;;4974005;28;20046;-76
2023/06/12 03:03:12;;;;;;;9.35;5.40;;;19.30;99.90;;;;;;5004401;28;20426;-78
2023/06/12 03:05:49;;;;;;;7.72;5.47;;;19.30;99.90;;;;;;5001494;28;20038;-75
2023/06/12 03:08:20;;;;;;;7.57;5.10;;;19.20;99.90;;;;;;4969266;28;20069;-76
2023/06/12 03:10:47;;;;;;;8.48;5.28;;;19.30;99.90;;;;;;5002544;28;20383;-77
2023/06/12 03:13:18;;;;;;;8.48;5.57;;;19.30;99.90;;;;;;5002956;28;20042;-76
2023/06/12 03:15:51;;;;;;;8.43;5.00;;;18.90;99.90;;;;;;4982846;28;20096;-76
2023/06/12 03:19:06;;;;;;;8.73;4.93;;;19.00;99.90;;;;;;4966739;28;20042;-77
2023/06/12 03:21:45;;;;;;;;;;;19.20;99.90;;;;;;4969068;28;20153;-75
2023/06/12 03:24:13;;;;;;;7.78;5.80;;;19.30;99.90;;;;;;4992249;28;19921;-76
2023/06/12 03:26:42;;;;;;;9.93;5.43;;;19.30;99.90;;;;;;4983203;28;20069;-74
2023/06/12 03:29:10;;;;;;;10.02;5.50;;;19.10;99.90;;;;;;4995502;28;20110;-75
2023/06/12 03:31:40;;;;;;;8.55;5.43;;;19.00;99.90;;;;;;4978738;28;20130;-75
2023/06/12 03:34:18;;;;;;;7.95;5.07;;;19.00;99.90;;;;;;4966619;28;20050;-76
2023/06/12 03:37:23;;;;;;;9.60;5.43;;;19.10;99.90;;;;;;4971733;28;20034;-78
2023/06/12 03:40:08;;;;;;;9.55;5.10;;;19.20;99.90;;;;;;4996630;28;20029;-75
2023/06/12 03:42:36;;;;;;;10.68;5.60;;;19.20;99.90;;;;;;4990297;28;20510;-74
2023/06/12 03:45:04;;;;;;;9.70;5.35;;;19.30;99.90;;;;;;4984004;28;20055;-74
2023/06/12 03:47:31;;;;;;;7.72;4.80;;;19.30;99.90;;;;;;4968639;28;20101;-75
2023/06/12 03:49:58;;;;;;;10.05;5.40;;;19.10;99.90;;;;;;4977558;28;20380;-75
2023/06/12 03:52:27;;;;;;;9.88;5.32;;;19.10;99.90;;;;;;4979430;28;20073;-77
2023/06/12 03:54:55;;;;;;;9.77;5.43;;;19.20;99.90;;;;;;4964058;28;20134;-76
2023/06/12 03:57:22;;;;;;;8.48;5.55;;;19.10;99.90;;;;;;4990449;28;20066;-74
2023/06/12 04:00:00;;;;;;;15.60;7.10;;;19.10;99.90;;;;;;4958632;28;20061;-75
2023/06/12 04:02:48;;;;;;;10.57;5.18;;;19.10;99.90;;;;;;4957381;28;20053;-77
2023/06/12 04:05:20;;;;;;;7.57;5.35;;;19.10;99.90;;;;;;4973856;28;20070;-76
2023/06/12 04:07:48;;;;;;;8.25;5.30;;;19.10;99.90;;;;;;4982774;28;20065;-75
2023/06/12 04:10:16;;;;;;;8.65;5.13;;;19.20;99.90;;;;;;4972105;28;20057;-77
2023/06/12 04:12:44;;;;;;;7.82;5.30;;;19.30;99.90;;;;;;4991579;28;20062;-74
2023/06/12 04:15:12;;;;;;;7.93;5.50;;;19.30;99.90;;;;;;4994565;28;20073;-77
2023/06/12 04:17:46;;;;;;;9.80;6.18;;;19.20;99.90;;;;;;4990211;28;20074;-77
2023/06/12 04:20:17;;;;;;;8.27;5.53;;;19.30;99.90;;;;;;4999577;28;20073;-76
2023/06/12 04:22:47;;;;;;;8.30;5.63;;;19.30;99.90;;;;;;4964409;28;20163;-76
2023/06/12 04:25:14;;;;;;;9.40;5.70;;;19.40;99.90;;;;;;4992829;28;20101;-77
2023/06/12 04:27:42;;;;;;;8.80;5.55;;;19.20;99.90;;;;;;4999101;28;20035;-78
2023/06/12 04:30:15;;;;;;;11.57;5.85;;;19.00;99.90;;;;;;4977274;28;20087;-76
2023/06/12 04:32:42;;;;;;;9.52;5.53;;;19.10;99.90;;;;;;4975957;28;20073;-76
2023/06/12 04:35:10;;;;;;;8.98;5.53;;;19.30;99.90;;;;;;4984892;28;20430;-78
2023/06/12 04:37:37;;;;;;;11.43;5.38;;;19.40;99.90;;;;;;4990416;28;20047;-75
2023/06/12 04:40:05;;;;;;;9.55;5.75;;;19.40;99.90;;;;;;4980958;28;20054;-75
2023/06/12 04:42:32;;;;;;;8.75;5.45;;;19.50;99.90;;;;;;4993561;28;20061;-75
2023/06/12 04:45:01;;;;;;;9.07;5.30;;;19.50;99.90;;;;;;4956163;28;20479;-76
2023/06/12 04:47:28;;;;;;;8.77;5.60;;;19.50;99.90;;;;;;4981023;28;20039;-76
2023/06/12 04:49:59;;;;;;;9.02;5.18;;;19.70;99.90;;;;;;4985943;28;20106;-74
2023/06/12 04:52:27;;;;;;;15.27;9.52;;;19.70;99.90;;;;;;4951489;28;20121;-74
2023/06/12 04:55:09;;;;;;;55.30;36.30;;;19.80;99.90;;;;;;4950288;28;20145;-76
2023/06/12 04:57:39;;;;;;;49.22;27.73;;;19.80;99.90;;;;;;4967824;28;20043;-74
2023/06/12 05:00:11;;;;;;;29.67;20.80;;;19.90;99.90;;;;;;4969922;28;20061;-74
2023/06/12 05:02:39;;;;;;;47.90;33.05;;;19.80;99.90;;;;;;4977155;28;20039;-75
2023/06/12 05:05:09;;;;;;;82.38;55.80;;;19.90;99.90;;;;;;4959460;28;20057;-75
2023/06/12 05:07:37;;;;;;;125.22;84.38;;;20.00;99.90;;;;;;4961005;28;20096;-76
2023/06/12 05:10:05;;;;;;;96.57;63.53;;;20.10;99.90;;;;;;4985285;28;20050;-75
2023/06/12 05:13:00;;;;;;;34.40;23.80;;;20.20;99.90;;;;;;4981227;28;20061;-76
2023/06/12 05:15:30;;;;;;;18.63;13.15;;;20.20;99.90;;;;;;4964382;28;20076;-75
2023/06/12 05:17:59;;;;;;;16.75;11.25;;;20.30;99.90;;;;;;4984584;28;20042;-75
2023/06/12 05:20:41;;;;;;;12.55;9.25;;;20.30;99.90;;;;;;4954870;28;20122;-77
2023/06/12 05:23:09;;;;;;;18.00;10.27;;;20.40;99.90;;;;;;4991763;28;20102;-79
2023/06/12 05:25:36;;;;;;;16.45;11.15;;;20.40;99.90;;;;;;4961312;28;20047;-78
2023/06/12 05:28:11;;;;;;;15.35;10.68;;;20.50;99.90;;;;;;4988829;28;20049;-79
2023/06/12 05:31:12;;;;;;;17.88;9.93;;;20.50;99.90;;;;;;4968665;28;20062;-77
2023/06/12 05:34:05;;;;;;;13.32;8.18;;;20.50;99.90;;;;;;4979417;28;20077;-79
2023/06/12 05:36:37;;;;;;;13.43;8.77;;;20.40;99.90;;;;;;5000996;28;20066;-76
2023/06/12 05:39:20;;;;;;;15.50;8.57;;;20.40;99.90;;;;;;4967529;28;20133;-77
2023/06/12 05:42:08;;;;;;;11.85;7.85;;;20.10;99.90;;;;;;4949300;28;20450;-75
2023/06/12 05:44:53;;;;;;;13.15;7.13;;;20.20;99.90;;;;;;4971777;28;20049;-75
2023/06/12 05:47:22;;;;;;;13.93;8.57;;;20.20;99.90;;;;;;4990322;28;20098;-80
2023/06/12 05:49:52;;;;;;;15.95;8.27;;;20.20;99.90;;;;;;4991740;28;20039;-79
2023/06/12 05:52:22;;;;;;;11.07;8.15;;;20.30;99.90;;;;;;4985548;28;20051;-76
2023/06/12 05:54:54;;;;;;;14.07;8.82;;;20.40;99.90;;;;;;4973396;28;20053;-80
2023/06/12 05:57:40;;;;;;;11.35;7.93;;;20.40;99.90;;;;;;4989785;28;20105;-75
2023/06/12 06:00:16;;;;;;;19.75;9.75;;;20.50;99.90;;;;;;4981100;28;20058;-74
2023/06/12 06:02:43;;;;;;;16.63;10.13;;;20.40;99.90;;;;;;4969303;28;20069;-81
2023/06/12 06:05:16;;;;;;;14.95;8.63;;;20.50;99.90;;;;;;4996740;28;20104;-76
2023/06/12 06:07:53;;;;;;;16.80;9.95;;;20.60;99.90;;;;;;4991792;28;20050;-77
2023/06/12 06:13:58;;;;;;;18.52;9.73;;;20.70;99.90;;;;;;4962583;28;20101;-77
2023/06/12 06:16:30;;;;;;;12.57;8.20;;;20.80;99.90;;;;;;4985016;28;20108;-76
2023/06/12 06:19:26;;;;;;;13.90;8.10;;;20.80;99.90;;;;;;4968062;28;20051;-77
2023/06/12 06:21:56;;;;;;;13.50;7.82;;;20.70;99.90;;;;;;4980729;28;20565;-74
2023/06/12 06:24:25;;;;;;;11.18;8.05;;;20.70;99.90;;;;;;4981656;28;20189;-76
2023/06/12 06:27:10;;;;;;;13.60;8.23;;;20.80;99.90;;;;;;4957647;28;20051;-79
2023/06/12 06:29:57;;;;;;;13.48;7.78;;;20.70;99.90;;;;;;4948311;29;20133;-75
2023/06/12 06:32:42;;;;;;;13.27;8.23;;;20.70;99.90;;;;;;4962339;28;20073;-78
2023/06/12 06:35:11;;;;;;;14.38;7.90;;;20.80;99.90;;;;;;4982844;28;20109;-78
2023/06/12 06:37:42;;;;;;;13.15;7.95;;;20.80;99.90;;;;;;4974704;28;20054;-77
2023/06/12 06:40:30;;;;;;;11.80;7.45;;;20.70;99.90;;;;;;4976134;28;20043;-77
2023/06/12 06:43:01;;;;;;;13.15;7.22;;;20.80;99.90;;;;;;4958104;28;20048;-76
2023/06/12 06:45:45;;;;;;;12.50;8.02;;;20.80;99.90;;;;;;4956060;29;20047;-78
2023/06/12 06:48:27;;;;;;;14.57;7.75;;;20.70;99.90;;;;;;4951534;28;20040;-77
2023/06/12 06:50:57;;;;;;;10.95;8.02;;;20.70;99.90;;;;;;4962638;29;20105;-76
2023/06/12 06:53:43;;;;;;;14.02;7.80;;;20.70;99.90;;;;;;4945088;29;20054;-77
2023/06/12 06:56:16;;;;;;;13.95;8.10;;;20.80;99.90;;;;;;4948966;29;20058;-75
2023/06/12 06:58:45;;;;;;;14.27;7.88;;;20.90;99.90;;;;;;4945852;23;20133;-74
2023/06/12 07:01:29;;;;;;;14.30;7.32;;;21.00;99.90;;;;;;4953882;28;20057;-75
2023/06/12 07:03:57;;;;;;;12.30;7.47;;;21.10;99.90;;;;;;4948406;29;20035;-76
2023/06/12 07:06:26;;;;;;;11.77;8.55;;;21.00;99.90;;;;;;4933728;29;20428;-75
2023/06/12 07:08:59;;;;;;;14.65;7.80;;;21.00;99.90;;;;;;4978599;28;20118;-75
2023/06/12 07:11:27;;;;;;;;;;;21.10;99.90;;;;;;4946734;28;20109;-75
2023/06/12 07:13:54;;;;;;;11.95;7.07;;;21.10;99.90;;;;;;4990790;28;19918;-77
2023/06/12 07:16:27;;;;;;;14.80;7.93;;;21.20;99.90;;;;;;4952155;28;20465;-78
2023/06/12 07:18:55;;;;;;;10.88;7.93;;;21.30;99.90;;;;;;4983493;28;20054;-78
2023/06/12 07:21:26;;;;;;;10.75;7.93;;;21.20;99.90;;;;;;4967571;28;20442;-74
2023/06/12 07:24:17;;;;;;;13.05;8.15;;;21.30;99.90;;;;;;4967390;28;20058;-74
2023/06/12 07:26:58;;;;;;;13.40;8.48;;;21.30;99.90;;;;;;4965041;28;20050;-78
2023/06/12 07:29:42;;;;;;;12.35;8.02;;;21.40;99.90;;;;;;4943869;28;20141;-74
2023/06/12 07:32:32;;;;;;;12.32;8.30;;;21.40;99.90;;;;;;4953915;29;20047;-74
2023/06/12 07:35:37;;;;;;;14.48;8.07;;;21.50;99.90;;;;;;4942304;28;20046;-75
2023/06/12 07:38:21;;;;;;;11.68;8.48;;;21.60;99.90;;;;;;4953001;23;20035;-75
2023/06/12 07:41:17;;;;;;;12.88;8.32;;;21.50;99.90;;;;;;4963218;23;20501;-75
2023/06/12 07:43:55;;;;;;;16.58;8.68;;;21.40;99.90;;;;;;4960119;28;20145;-75
2023/06/12 07:46:31;;;;;;;11.50;8.57;;;21.50;99.90;;;;;;4962929;28;20062;-78
2023/06/12 07:49:05;;;;;;;12.85;8.20;;;21.60;99.90;;;;;;4974566;28;20031;-76
2023/06/12 07:51:51;;;;;;;13.70;7.70;;;21.60;99.90;;;;;;4951518;28;20059;-74
2023/06/12 07:54:36;;;;;;;10.93;7.28;;;21.70;99.90;;;;;;4947732;28;20070;-78
2023/06/12 07:57:10;;;;;;;12.10;7.60;;;22.00;99.90;;;;;;4999359;23;20062;-76
2023/06/12 07:59:52;;;;;;;14.63;8.73;;;22.00;99.90;;;;;;4984079;28;20115;-78
2023/06/12 08:02:31;;;;;;;15.98;7.85;;;22.10;99.90;;;;;;4948454;28;20101;-75
2023/06/12 08:05:34;;;;;;;10.48;7.70;;;22.20;99.90;;;;;;4985054;28;20046;-73
2023/06/12 08:08:23;;;;;;;12.63;7.47;;;22.20;99.90;;;;;;4985679;28;20148;-74
2023/06/12 08:11:04;;;;;;;11.45;7.47;;;22.10;99.90;;;;;;4963131;28;20042;-75
2023/06/12 08:13:35;;;;;;;12.88;7.22;;;22.10;99.90;;;;;;4956749;28;20146;-74
2023/06/12 08:16:03;;;;;;;14.57;7.65;;;22.10;99.90;;;;;;4956041;28;20047;-75
2023/06/12 08:18:34;;;;;;;14.65;7.80;;;22.10;99.90;;;;;;4971783;28;20058;-78
2023/06/12 08:21:02;;;;;;;11.20;7.43;;;22.20;99.90;;;;;;4969809;28;20057;-79
2023/06/12 08:23:31;;;;;;;12.15;7.68;;;22.20;99.90;;;;;;4988900;28;20085;-75
2023/06/12 08:26:04;;;;;;;14.73;8.23;;;22.30;99.90;;;;;;4970669;28;20097;-78
2023/06/12 08:28:48;;;;;;;11.95;8.20;;;22.10;99.90;;;;;;4961005;28;20093;-75
2023/06/12 08:31:34;;;;;;;15.25;8.45;;;22.10;99.90;;;;;;4975172;28;20054;-76
2023/06/12 08:34:06;;;;;;;12.88;8.48;;;22.10;99.90;;;;;;4985646;28;20393;-77
2023/06/12 08:36:37;;;;;;;16.50;7.93;;;22.30;99.90;;;;;;4971769;28;20449;-76
2023/06/12 08:39:37;;;;;;;11.13;7.30;;;22.40;99.90;;;;;;4987019;28;20047;-74
2023/06/12 08:42:21;;;;;;;11.32;7.45;;;22.60;99.90;;;;;;4964764;28;20047;-74
2023/06/12 08:45:23;;;;;;;12.40;7.60;;;22.70;99.90;;;;;;4948284;28;20047;-74
2023/06/12 08:48:14;;;;;;;14.02;8.48;;;22.80;99.90;;;;;;4972074;28;20046;-75
2023/06/12 08:51:17;;;;;;;13.70;8.52;;;22.70;99.90;;;;;;4966141;28;20035;-77
2023/06/12 08:53:55;;;;;;;11.95;8.05;;;22.80;99.90;;;;;;4928689;29;20043;-73
2023/06/12 08:56:47;;;;;;;16.20;7.45;;;22.70;99.90;;;;;;4960677;28;20059;-74
2023/06/12 08:59:39;;;;;;;12.52;7.95;;;22.50;99.90;;;;;;4976066;28;20039;-74
2023/06/12 09:02:16;;;;;;;14.90;7.60;;;22.60;99.90;;;;;;4946986;28;20047;-77
2023/06/12 09:04:45;;;;;;;;;;;22.40;99.90;;;;;;4969798;28;20046;-75
2023/06/12 09:07:18;;;;;;;10.82;7.60;;;22.30;99.90;;;;;;4949860;28;19953;-74
2023/06/12 09:09:49;;;;;;;13.38;7.07;;;22.10;99.90;;;;;;4969937;28;20054;-75
2023/06/12 09:12:20;;;;;;;13.75;7.15;;;22.10;99.90;;;;;;4951810;28;20051;-80
2023/06/12 09:15:00;;;;;;;12.45;7.95;;;22.40;99.90;;;;;;4986381;28;20088;-74
2023/06/12 09:17:54;;;;;;;12.43;7.30;;;22.30;99.90;;;;;;4976792;28;20147;-74
2023/06/12 09:20:39;;;;;;;14.30;7.55;;;22.20;99.90;;;;;;4972703;28;20062;-76
2023/06/12 09:23:15;;;;;;;13.35;6.88;;;22.30;99.90;;;;;;4964439;28;20051;-77
2023/06/12 09:26:04;;;;;;;12.30;7.78;;;22.40;99.90;;;;;;4963442;28;20062;-75
2023/06/12 09:28:56;;;;;;;12.68;7.47;;;22.30;99.90;;;;;;4981695;28;20047;-79
2023/06/12 09:31:27;;;;;;;10.25;7.63;;;22.10;99.90;;;;;;5058708;23;20062;-79
2023/06/12 09:33:59;;;;;;;11.20;7.93;;;21.90;99.90;;;;;;4982355;28;20414;-77
2023/06/12 09:36:35;;;;;;;10.88;7.57;;;21.80;99.90;;;;;;4992741;28;20415;-75
2023/06/12 09:39:31;;;;;;;10.30;6.32;;;22.00;99.90;;;;;;4970637;28;20081;-80
2023/06/12 09:42:13;;;;;;;12.70;7.18;;;22.10;99.90;;;;;;4992099;28;20129;-75
2023/06/12 09:44:54;;;;;;;11.75;6.55;;;22.00;99.90;;;;;;5007262;28;20044;-74
2023/06/12 09:47:36;;;;;;;9.93;5.97;;;22.10;99.90;;;;;;4949181;28;20055;-75
2023/06/12 09:50:23;;;;;;;8.85;5.82;;;22.30;99.90;;;;;;4954610;28;20082;-74
2023/06/12 09:53:01;;;;;;;10.63;6.38;;;22.40;99.90;;;;;;4964443;28;20042;-73
2023/06/12 09:55:35;;;;;;;9.18;6.10;;;22.60;99.90;;;;;;4984683;23;20043;-77
2023/06/12 09:58:42;;;;;;;12.10;5.85;;;22.40;99.90;;;;;;4982831;28;20513;-75
2023/06/12 10:04:42;;;;;;;11.05;6.57;;;22.40;99.90;;;;;;4939150;29;20055;-76
2023/06/12 10:07:38;;;;;;;10.25;6.20;;;22.70;99.90;;;;;;4924771;29;20221;-74
2023/06/12 10:10:35;;;;;;;10.32;5.65;;;22.70;99.90;;;;;;4927740;29;20063;-74
2023/06/12 10:13:10;;;;;;;7.93;5.70;;;22.80;99.90;;;;;;4917187;29;20048;-75
2023/06/12 10:15:56;;;;;;;8.88;6.03;;;22.80;99.90;;;;;;4936455;29;20044;-76
2023/06/12 10:19:00;;;;;;;8.90;6.03;;;22.90;99.90;;;;;;4944881;29;20063;-77
2023/06/12 10:21:41;;;;;;;10.88;6.03;;;22.80;99.90;;;;;;4933235;29;20055;-76
2023/06/12 10:24:32;;;;;;;9.88;5.78;;;22.70;99.90;;;;;;4936830;29;20062;-75
2023/06/12 10:27:18;;;;;;;9.98;6.10;;;22.70;99.90;;;;;;4916935;29;20059;-80
2023/06/12 10:30:00;;;;;;;8.77;5.75;;;22.60;99.90;;;;;;4943292;29;20079;-75
2023/06/12 10:33:03;;;;;;;9.50;6.47;;;22.40;99.90;;;;;;4922351;29;20048;-78
2023/06/12 10:35:56;;;;;;;9.35;5.72;;;22.20;99.90;;;;;;4939589;29;20056;-77
2023/06/12 10:39:03;;;;;;;14.18;8.45;;;22.70;99.90;;;;;;4926579;29;20044;-76
2023/06/12 10:42:10;;;;;;;15.80;9.68;;;22.40;99.90;;;;;;4947037;28;20059;-75
2023/06/12 10:45:33;;;;;;;16.90;9.57;;;21.60;99.90;;;;;;4925606;29;20116;-79
2023/06/12 10:48:48;;;;;;;13.02;9.32;;;21.50;99.90;;;;;;4947727;29;20107;-76
2023/06/12 10:51:55;;;;;;;16.13;9.52;;;21.10;99.90;;;;;;4923230;29;20071;-74
2023/06/12 10:54:44;;;;;;;17.55;9.18;;;21.30;99.90;;;;;;4950877;29;20066;-77
2023/06/12 10:57:31;;;;;;;12.05;9.00;;;20.90;99.90;;;;;;4936600;29;20093;-75
2023/06/12 11:00:26;;;;;;;14.80;9.43;;;21.10;99.90;;;;;;4925139;29;20058;-76
2023/06/12 11:03:29;;;;;;;13.95;9.10;;;21.20;99.90;;;;;;4952229;28;20067;-76
2023/06/12 11:06:16;;;;;;;14.43;9.38;;;21.30;99.90;;;;;;4949941;28;20054;-75
2023/06/12 11:09:11;;;;;;;11.43;8.43;;;21.20;99.90;;;;;;4955197;28;20046;-76
2023/06/12 11:12:02;;;;;;;14.75;9.32;;;21.80;99.90;;;;;;4950094;28;20035;-77
2023/06/12 11:15:27;;;;;;;14.85;9.10;;;22.20;99.90;;;;;;4950149;28;20051;-76
2023/06/12 11:18:19;;;;;;;16.25;9.23;;;22.00;99.90;;;;;;4926646;29;20098;-75
2023/06/12 11:21:25;;;;;;;14.10;9.07;;;22.00;99.90;;;;;;4916178;28;20042;-75
2023/06/12 11:23:55;;;;;;;14.35;9.52;;;21.70;99.90;;;;;;4972444;28;20066;-77
2023/06/12 11:27:03;;;;;;;13.13;9.05;;;21.70;99.90;;;;;;4965617;28;20047;-76
2023/06/12 11:29:51;;;;;;;17.33;8.88;;;21.80;99.90;;;;;;4933975;29;20045;-75
2023/06/12 11:32:43;;;;;;;12.85;8.32;;;22.00;99.90;;;;;;4948336;28;20055;-75
2023/06/12 11:35:53;;;;;;;15.43;8.52;;;21.80;99.90;;;;;;4972801;29;20051;-76
2023/06/12 11:38:51;;;;;;;15.23;8.38;;;21.80;99.90;;;;;;4935591;28;20114;-75
2023/06/12 11:42:09;;;;;;;15.93;9.60;;;21.80;99.90;;;;;;4926162;29;20056;-76
2023/06/12 12:13:30;;;;;;;10.77;7.68;;;22.60;99.90;;;;;;4881427;29;20105;-80
2023/06/12 12:16:31;;;;;;;10.20;7.15;;;22.90;99.90;;;;;;4885092;29;20048;-80
2023/06/12 12:30:29;;;;;;;9.93;6.22;;;24.00;99.90;;;;;;4589948;27;20488;-78
2023/06/12 12:37:11;;;;;;;9.13;5.97;;;24.40;99.90;;;;;;5008918;23;20053;-75
2023/06/12 12:43:50;;;;;;;;;;;23.80;99.90;;;;;;4949170;28;20058;-79
2023/06/12 12:47:11;;;;;;;10.03;6.13;;;24.00;99.90;;;;;;4966133;28;20365;-80
2023/06/12 12:50:41;;;;;;;6.95;3.80;;;24.10;99.90;;;;;;4928818;29;20048;-77
2023/06/12 12:53:43;;;;;;;5.22;2.95;;;24.10;99.90;;;;;;4905187;29;20054;-75
2023/06/12 12:56:18;;;;;;;7.78;3.40;;;24.50;99.90;;;;;;4920272;29;20060;-78
2023/06/12 13:00:37;;;;;;;6.82;3.72;;;24.60;99.90;;;;;;4930452;29;20123;-80
2023/06/12 13:08:12;;;;;;;7.03;3.75;;;25.50;99.90;;;;;;4820018;29;20068;-77
2023/06/12 13:10:41;;;;;;;5.72;3.90;;;25.40;99.90;;;;;;4825018;29;20079;-79
2023/06/12 13:42:17;;;;;;;6.88;4.22;;;26.60;96.50;;;;;;5325588;23;20066;-81
2023/06/12 13:45:17;;;;;;;6.70;3.92;;;25.00;97.90;;;;;;4930432;23;20054;-84
2023/06/12 13:47:47;;;;;;;5.63;3.85;;;24.30;99.10;;;;;;4942284;29;20035;-77
2023/06/12 14:10:16;;;;;;;11.20;2.90;;;24.10;99.90;;;;;;5651726;23;20974;-80
2023/06/12 14:26:42;;;;;;;4.93;2.58;;;22.90;99.90;;;;;;5287229;23;20043;-83
2023/06/12 14:33:58;;;;;;;3.67;2.25;;;22.60;99.90;;;;;;5323861;23;20087;-82
2023/06/12 14:50:23;;;;;;;4.95;2.75;;;22.10;99.90;;;;;;5415900;23;20023;-81
2023/06/12 14:53:30;;;;;;;6.43;3.00;;;22.10;99.90;;;;;;5782162;23;20121;-81
2023/06/12 15:08:55;;;;;;;4.15;2.42;;;21.80;99.90;;;;;;5538154;23;20051;-88
2023/06/12 15:15:01;;;;;;;6.25;2.72;;;21.70;99.90;;;;;;4889568;29;20105;-83
2023/06/12 16:33:02;;;;;;;8.20;4.45;;;21.40;99.90;;;;;;4930834;29;20048;-84
2023/06/12 17:16:40;;;;;;;5.80;3.17;;;20.20;99.90;;;;;;4889209;29;20926;-85
2023/06/12 17:23:47;;;;;;;4.30;2.53;;;19.80;99.90;;;;;;4897321;27;20032;-88
2023/06/12 18:57:59;;;;;;;5.47;3.40;;;19.60;99.90;;;;;;5249323;23;20055;-81
2023/06/12 19:08:31;;;;;;;7.07;4.40;;;19.70;99.90;;;;;;4934310;29;20031;-84
2023/06/12 19:12:38;;;;;;;5.47;3.53;;;19.80;99.90;;;;;;4931093;29;20068;-80
2023/06/12 19:24:42;;;;;;;6.55;4.25;;;19.70;99.90;;;;;;5207434;23;20052;-81
2023/06/12 19:30:48;;;;;;;6.80;4.57;;;19.70;99.90;;;;;;5911515;23;20035;-82
2023/06/12 19:41:34;;;;;;;9.95;6.90;;;19.50;99.90;;;;;;5200526;23;20516;-82
2023/06/12 21:14:17;;;;;;;6.32;4.50;;;18.60;99.90;;;;;;4902358;29;20039;-81
2023/06/12 21:27:27;;;;;;;5.25;3.42;;;19.20;99.90;;;;;;4912113;29;20037;-81
2023/06/12 21:30:10;;;;;;;7.60;4.47;;;19.30;99.90;;;;;;4898261;29;20043;-82
2023/06/12 21:42:07;;;;;;;6.25;3.78;;;19.30;99.90;;;;;;4932898;23;20144;-79
2023/06/12 22:01:44;;;;;;;7.80;5.18;;;18.30;99.90;;;;;;4995947;23;20037;-82
2023/06/12 22:07:58;;;;;;;9.32;5.20;;;17.90;99.90;;;;;;3187595;27;20108;-83
2023/06/12 22:11:01;;;;;;;62.55;38.28;;;18.20;99.90;;;;;;4888791;29;20052;-83
2023/06/12 22:17:08;;;;;;;12.80;8.93;;;18.90;99.90;;;;;;4603156;27;20708;-85
2023/06/12 22:20:20;;;;;;;7.85;5.05;;;18.80;99.90;;;;;;4917159;29;20035;-84
2023/06/12 22:26:24;;;;;;;8.63;5.70;;;18.60;99.90;;;;;;5646467;23;20047;-78
2023/06/12 22:29:50;;;;;;;7.70;5.43;;;18.40;99.90;;;;;;4921058;29;20100;-80
2023/06/12 22:32:23;;;;;;;10.98;5.90;;;18.60;99.90;;;;;;4911951;29;20100;-83
2023/06/12 22:45:45;;;;;;;8.48;6.38;;;19.10;99.90;;;;;;4823403;23;20028;-81
2023/06/12 22:48:33;;;;;;;9.48;6.45;;;19.00;99.90;;;;;;4892031;29;20041;-80
2023/06/12 22:51:19;;;;;;;8.75;5.47;;;19.10;99.90;;;;;;4850195;29;20069;-80
2023/06/12 22:56:48;;;;;;;11.52;6.65;;;19.10;99.90;;;;;;4906091;29;20049;-83
2023/06/12 23:00:13;;;;;;;11.35;6.35;;;19.10;99.90;;;;;;4874440;29;20109;-87
2023/06/12 23:03:55;;;;;;;;;;;19.10;99.90;;;;;;4855021;29;20086;-86